sensor_id;sensor_type;location;lat;lon;timestamp;P1;durP1;ratioP1;P2;durP2;ratioP2
2992;SDS011;1506;48.932;9.478;2023-04-03T00:00:55;5.00;;;3.20;;
2992;SDS011;1506;48.932;9.478;2023-04-03T00:03:23;3.53;;;3.33;;
2992;SDS011;1506;48.932;9.478;2023-04-03T00:05:50;3.90;;;3.60;;
2992;SDS011;1506;48.932;9.478;2023-04-03T00:08:17;4.47;;;3.80;;
2992;SDS011;1506;48.932;9.478;2023-04-03T00:10:44;3.83;;;3.17;;
2992;SDS011;1506;48.932;9.478;2023-04-03T00:13:11;4.53;;;3.00;;
2992;SDS011;1506;48.932;9.478;2023-04-03T00:15:39;5.60;;;2.90;;
2992;SDS011;1506;48.932;9.478;2023-04-03T00:18:06;4.17;;;3.97;;
2992;SDS011;1506;48.932;9.478;2023-04-03T00:20:34;4.03;;;3.60;;
2992;SDS011;1506;48.932;9.478;2023-04-03T00:23:03;3.47;;;3.27;;
2992;SDS011;1506;48.932;9.478;2023-04-03T00:25:30;3.67;;;3.37;;
2992;SDS011;1506;48.932;9.478;2023-04-03T00:27:57;4.20;;;3.50;;
2992;SDS011;1506;48.932;9.478;2023-04-03T00:30:24;3.83;;;3.53;;
2992;SDS011;1506;48.932;9.478;2023-04-03T00:32:52;3.20;;;3.10;;
2992;SDS011;1506;48.932;9.478;2023-04-03T00:35:20;4.17;;;3.97;;
2992;SDS011;1506;48.932;9.478;2023-04-03T00:37:50;3.57;;;3.37;;
2992;SDS011;1506;48.932;9.478;2023-04-03T00:40:19;3.43;;;3.23;;
2992;SDS011;1506;48.932;9.478;2023-04-03T00:42:51;3.17;;;2.97;;
2992;SDS011;1506;48.932;9.478;2023-04-03T00:45:28;11.80;;;3.50;;
2992;SDS011;1506;48.932;9.478;2023-04-03T00:47:58;10.43;;;4.23;;
2992;SDS011;1506;48.932;9.478;2023-04-03T00:50:28;4.60;;;3.70;;
2992;SDS011;1506;48.932;9.478;2023-04-03T00:52:56;4.00;;;3.70;;
2992;SDS011;1506;48.932;9.478;2023-04-03T00:55:24;3.90;;;2.90;;
2992;SDS011;1506;48.932;9.478;2023-04-03T00:57:52;3.77;;;3.50;;
2992;SDS011;1506;48.932;9.478;2023-04-03T01:00:21;3.47;;;3.27;;
2992;SDS011;1506;48.932;9.478;2023-04-03T01:02:50;2.87;;;2.73;;
2992;SDS011;1506;48.932;9.478;2023-04-03T01:05:19;2.93;;;2.83;;
2992;SDS011;1506;48.932;9.478;2023-04-03T01:07:47;3.47;;;3.23;;
2992;SDS011;1506;48.932;9.478;2023-04-03T01:10:16;3.37;;;3.17;;
2992;SDS011;1506;48.932;9.478;2023-04-03T01:12:48;4.93;;;3.93;;
2992;SDS011;1506;48.932;9.478;2023-04-03T01:15:19;3.57;;;3.27;;
2992;SDS011;1506;48.932;9.478;2023-04-03T01:17:57;2.90;;;2.80;;
2992;SDS011;1506;48.932;9.478;2023-04-03T01:23:17;4.33;;;2.93;;
2992;SDS011;1506;48.932;9.478;2023-04-03T01:26:10;4.57;;;2.60;;
2992;SDS011;1506;48.932;9.478;2023-04-03T01:28:38;10.87;;;3.63;;
2992;SDS011;1506;48.932;9.478;2023-04-03T01:31:18;3.10;;;2.90;;
2992;SDS011;1506;48.932;9.478;2023-04-03T01:33:53;3.10;;;2.90;;
2992;SDS011;1506;48.932;9.478;2023-04-03T01:36:22;4.47;;;4.27;;
2992;SDS011;1506;48.932;9.478;2023-04-03T01:38:53;3.17;;;2.97;;
2992;SDS011;1506;48.932;9.478;2023-04-03T01:41:22;2.80;;;2.70;;
2992;SDS011;1506;48.932;9.478;2023-04-03T01:43:52;4.47;;;2.53;;
2992;SDS011;1506;48.932;9.478;2023-04-03T01:46:19;3.80;;;3.57;;
2992;SDS011;1506;48.932;9.478;2023-04-03T01:48:47;8.83;;;4.10;;
2992;SDS011;1506;48.932;9.478;2023-04-03T01:51:15;3.20;;;2.90;;
2992;SDS011;1506;48.932;9.478;2023-04-03T01:53:42;8.70;;;3.93;;
2992;SDS011;1506;48.932;9.478;2023-04-03T01:56:10;3.60;;;3.40;;
2992;SDS011;1506;48.932;9.478;2023-04-03T01:58:37;2.60;;;2.40;;
2992;SDS011;1506;48.932;9.478;2023-04-03T02:01:05;4.57;;;3.03;;
2992;SDS011;1506;48.932;9.478;2023-04-03T02:03:33;5.00;;;3.20;;
2992;SDS011;1506;48.932;9.478;2023-04-03T02:06:00;2.97;;;2.87;;
2992;SDS011;1506;48.932;9.478;2023-04-03T02:08:27;3.40;;;3.20;;
2992;SDS011;1506;48.932;9.478;2023-04-03T02:10:55;4.20;;;3.50;;
2992;SDS011;1506;48.932;9.478;2023-04-03T02:13:23;2.40;;;2.30;;
2992;SDS011;1506;48.932;9.478;2023-04-03T02:15:50;9.43;;;3.60;;
2992;SDS011;1506;48.932;9.478;2023-04-03T02:18:17;5.17;;;4.70;;
2992;SDS011;1506;48.932;9.478;2023-04-03T02:20:46;4.90;;;3.67;;
2992;SDS011;1506;48.932;9.478;2023-04-03T02:23:14;2.73;;;2.53;;
2992;SDS011;1506;48.932;9.478;2023-04-03T02:25:41;2.60;;;2.50;;
2992;SDS011;1506;48.932;9.478;2023-04-03T02:28:08;3.17;;;2.97;;
2992;SDS011;1506;48.932;9.478;2023-04-03T02:30:36;4.80;;;3.13;;
2992;SDS011;1506;48.932;9.478;2023-04-03T02:33:04;3.30;;;3.10;;
2992;SDS011;1506;48.932;9.478;2023-04-03T02:35:31;3.03;;;2.83;;
2992;SDS011;1506;48.932;9.478;2023-04-03T02:37:59;3.70;;;3.50;;
2992;SDS011;1506;48.932;9.478;2023-04-03T02:40:26;3.50;;;3.30;;
2992;SDS011;1506;48.932;9.478;2023-04-03T02:42:54;3.30;;;3.10;;
2992;SDS011;1506;48.932;9.478;2023-04-03T02:45:23;3.07;;;2.97;;
2992;SDS011;1506;48.932;9.478;2023-04-03T02:47:51;10.77;;;3.33;;
2992;SDS011;1506;48.932;9.478;2023-04-03T02:50:19;3.53;;;2.97;;
2992;SDS011;1506;48.932;9.478;2023-04-03T02:52:46;2.60;;;2.50;;
2992;SDS011;1506;48.932;9.478;2023-04-03T02:55:14;4.03;;;2.80;;
2992;SDS011;1506;48.932;9.478;2023-04-03T02:57:43;7.03;;;2.33;;
2992;SDS011;1506;48.932;9.478;2023-04-03T03:00:12;3.03;;;2.73;;
2992;SDS011;1506;48.932;9.478;2023-04-03T03:02:40;3.43;;;2.27;;
2992;SDS011;1506;48.932;9.478;2023-04-03T03:05:08;2.43;;;2.33;;
2992;SDS011;1506;48.932;9.478;2023-04-03T03:07:35;2.37;;;2.27;;
2992;SDS011;1506;48.932;9.478;2023-04-03T03:10:03;2.43;;;2.27;;
2992;SDS011;1506;48.932;9.478;2023-04-03T03:12:31;2.43;;;2.33;;
2992;SDS011;1506;48.932;9.478;2023-04-03T03:14:59;2.60;;;2.50;;
2992;SDS011;1506;48.932;9.478;2023-04-03T03:17:26;2.17;;;1.90;;
2992;SDS011;1506;48.932;9.478;2023-04-03T03:19:54;2.43;;;2.33;;
2992;SDS011;1506;48.932;9.478;2023-04-03T03:22:22;6.23;;;2.50;;
2992;SDS011;1506;48.932;9.478;2023-04-03T03:24:49;2.03;;;1.93;;
2992;SDS011;1506;48.932;9.478;2023-04-03T03:27:16;2.53;;;2.43;;
2992;SDS011;1506;48.932;9.478;2023-04-03T03:29:44;2.27;;;2.17;;
2992;SDS011;1506;48.932;9.478;2023-04-03T03:32:12;2.40;;;2.30;;
2992;SDS011;1506;48.932;9.478;2023-04-03T03:34:40;7.93;;;2.83;;
2992;SDS011;1506;48.932;9.478;2023-04-03T03:37:07;3.00;;;2.80;;
2992;SDS011;1506;48.932;9.478;2023-04-03T03:39:34;5.70;;;1.90;;
2992;SDS011;1506;48.932;9.478;2023-04-03T03:42:02;3.60;;;3.40;;
2992;SDS011;1506;48.932;9.478;2023-04-03T03:44:29;3.53;;;2.27;;
2992;SDS011;1506;48.932;9.478;2023-04-03T03:46:57;10.10;;;2.57;;
2992;SDS011;1506;48.932;9.478;2023-04-03T03:49:25;2.73;;;2.53;;
2992;SDS011;1506;48.932;9.478;2023-04-03T03:51:52;2.70;;;2.60;;
2992;SDS011;1506;48.932;9.478;2023-04-03T03:54:19;4.10;;;2.87;;
2992;SDS011;1506;48.932;9.478;2023-04-03T03:56:47;2.37;;;2.27;;
2992;SDS011;1506;48.932;9.478;2023-04-03T03:59:15;2.53;;;2.43;;
2992;SDS011;1506;48.932;9.478;2023-04-03T04:01:43;2.40;;;2.30;;
2992;SDS011;1506;48.932;9.478;2023-04-03T04:04:11;2.10;;;2.00;;
2992;SDS011;1506;48.932;9.478;2023-04-03T04:06:38;3.07;;;2.87;;
2992;SDS011;1506;48.932;9.478;2023-04-03T04:09:08;3.03;;;2.87;;
2992;SDS011;1506;48.932;9.478;2023-04-03T04:11:36;2.83;;;2.40;;
2992;SDS011;1506;48.932;9.478;2023-04-03T04:14:06;2.77;;;2.60;;
2992;SDS011;1506;48.932;9.478;2023-04-03T04:16:34;2.73;;;2.53;;
2992;SDS011;1506;48.932;9.478;2023-04-03T04:19:07;2.33;;;2.23;;
2992;SDS011;1506;48.932;9.478;2023-04-03T04:21:36;3.53;;;2.77;;
2992;SDS011;1506;48.932;9.478;2023-04-03T04:24:05;2.20;;;2.10;;
2992;SDS011;1506;48.932;9.478;2023-04-03T04:26:33;2.33;;;2.23;;
2992;SDS011;1506;48.932;9.478;2023-04-03T04:29:00;3.23;;;3.00;;
2992;SDS011;1506;48.932;9.478;2023-04-03T04:31:31;2.30;;;2.20;;
2992;SDS011;1506;48.932;9.478;2023-04-03T04:33:58;1.80;;;1.70;;
2992;SDS011;1506;48.932;9.478;2023-04-03T04:36:26;3.27;;;2.90;;
2992;SDS011;1506;48.932;9.478;2023-04-03T04:38:54;3.33;;;2.40;;
2992;SDS011;1506;48.932;9.478;2023-04-03T04:41:24;2.13;;;2.03;;
2992;SDS011;1506;48.932;9.478;2023-04-03T04:43:52;2.40;;;2.30;;
2992;SDS011;1506;48.932;9.478;2023-04-03T04:46:20;3.13;;;2.93;;
2992;SDS011;1506;48.932;9.478;2023-04-03T04:48:53;4.23;;;2.80;;
2992;SDS011;1506;48.932;9.478;2023-04-03T04:51:21;2.07;;;1.97;;
2992;SDS011;1506;48.932;9.478;2023-04-03T04:53:49;2.77;;;2.57;;
2992;SDS011;1506;48.932;9.478;2023-04-03T04:56:18;3.37;;;3.17;;
2992;SDS011;1506;48.932;9.478;2023-04-03T04:58:46;3.23;;;2.80;;
2992;SDS011;1506;48.932;9.478;2023-04-03T05:01:15;3.93;;;3.63;;
2992;SDS011;1506;48.932;9.478;2023-04-03T05:03:51;3.20;;;3.00;;
2992;SDS011;1506;48.932;9.478;2023-04-03T05:06:18;4.50;;;2.80;;
2992;SDS011;1506;48.932;9.478;2023-04-03T05:08:46;2.90;;;2.70;;
2992;SDS011;1506;48.932;9.478;2023-04-03T05:11:13;2.90;;;2.60;;
2992;SDS011;1506;48.932;9.478;2023-04-03T05:13:42;3.90;;;3.60;;
2992;SDS011;1506;48.932;9.478;2023-04-03T05:16:11;3.37;;;3.17;;
2992;SDS011;1506;48.932;9.478;2023-04-03T05:18:39;5.20;;;3.30;;
2992;SDS011;1506;48.932;9.478;2023-04-03T05:21:10;4.37;;;2.77;;
2992;SDS011;1506;48.932;9.478;2023-04-03T05:23:37;3.00;;;2.80;;
2992;SDS011;1506;48.932;9.478;2023-04-03T05:26:05;3.30;;;3.00;;
2992;SDS011;1506;48.932;9.478;2023-04-03T05:28:33;3.40;;;3.00;;
2992;SDS011;1506;48.932;9.478;2023-04-03T05:31:01;2.80;;;2.70;;
2992;SDS011;1506;48.932;9.478;2023-04-03T05:33:33;3.10;;;2.87;;
2992;SDS011;1506;48.932;9.478;2023-04-03T05:36:04;5.33;;;3.97;;
2992;SDS011;1506;48.932;9.478;2023-04-03T05:38:36;6.93;;;3.23;;
2992;SDS011;1506;48.932;9.478;2023-04-03T05:41:04;3.37;;;3.17;;
2992;SDS011;1506;48.932;9.478;2023-04-03T05:43:32;3.13;;;2.90;;
2992;SDS011;1506;48.932;9.478;2023-04-03T05:46:01;4.67;;;4.23;;
2992;SDS011;1506;48.932;9.478;2023-04-03T05:48:29;2.93;;;2.73;;
2992;SDS011;1506;48.932;9.478;2023-04-03T05:50:56;4.00;;;2.90;;
2992;SDS011;1506;48.932;9.478;2023-04-03T05:53:27;3.00;;;2.80;;
2992;SDS011;1506;48.932;9.478;2023-04-03T05:56:00;2.80;;;2.70;;
2992;SDS011;1506;48.932;9.478;2023-04-03T05:58:30;3.60;;;3.37;;
2992;SDS011;1506;48.932;9.478;2023-04-03T06:00:58;3.83;;;2.90;;
2992;SDS011;1506;48.932;9.478;2023-04-03T06:03:25;5.60;;;3.83;;
2992;SDS011;1506;48.932;9.478;2023-04-03T06:05:53;11.73;;;3.73;;
2992;SDS011;1506;48.932;9.478;2023-04-03T06:08:23;3.30;;;3.03;;
2992;SDS011;1506;48.932;9.478;2023-04-03T06:10:50;8.50;;;3.80;;
2992;SDS011;1506;48.932;9.478;2023-04-03T06:13:18;6.13;;;3.93;;
2992;SDS011;1506;48.932;9.478;2023-04-03T06:15:46;3.50;;;3.30;;
2992;SDS011;1506;48.932;9.478;2023-04-03T06:18:15;3.33;;;3.13;;
2992;SDS011;1506;48.932;9.478;2023-04-03T06:20:42;3.67;;;3.37;;
2992;SDS011;1506;48.932;9.478;2023-04-03T06:23:10;3.87;;;3.37;;
2992;SDS011;1506;48.932;9.478;2023-04-03T06:25:38;3.13;;;2.93;;
2992;SDS011;1506;48.932;9.478;2023-04-03T06:28:06;8.83;;;3.60;;
2992;SDS011;1506;48.932;9.478;2023-04-03T06:30:36;4.10;;;3.80;;
2992;SDS011;1506;48.932;9.478;2023-04-03T06:33:04;6.70;;;3.77;;
2992;SDS011;1506;48.932;9.478;2023-04-03T06:35:32;3.30;;;3.10;;
2992;SDS011;1506;48.932;9.478;2023-04-03T06:38:01;3.50;;;3.30;;
2992;SDS011;1506;48.932;9.478;2023-04-03T06:40:30;2.73;;;2.53;;
2992;SDS011;1506;48.932;9.478;2023-04-03T06:42:57;3.80;;;3.53;;
2992;SDS011;1506;48.932;9.478;2023-04-03T06:45:24;3.33;;;3.03;;
2992;SDS011;1506;48.932;9.478;2023-04-03T06:47:51;3.10;;;3.00;;
2992;SDS011;1506;48.932;9.478;2023-04-03T06:50:19;3.20;;;2.90;;
2992;SDS011;1506;48.932;9.478;2023-04-03T06:52:46;2.70;;;2.60;;
2992;SDS011;1506;48.932;9.478;2023-04-03T06:55:13;7.93;;;3.43;;
2992;SDS011;1506;48.932;9.478;2023-04-03T06:57:40;3.23;;;2.90;;
2992;SDS011;1506;48.932;9.478;2023-04-03T07:00:07;7.03;;;2.80;;
2992;SDS011;1506;48.932;9.478;2023-04-03T07:02:36;2.93;;;2.73;;
2992;SDS011;1506;48.932;9.478;2023-04-03T07:05:03;3.07;;;2.80;;
2992;SDS011;1506;48.932;9.478;2023-04-03T07:07:32;7.60;;;3.20;;
2992;SDS011;1506;48.932;9.478;2023-04-03T07:10:00;8.50;;;3.20;;
2992;SDS011;1506;48.932;9.478;2023-04-03T07:12:27;3.47;;;3.27;;
2992;SDS011;1506;48.932;9.478;2023-04-03T07:14:55;4.77;;;3.17;;
2992;SDS011;1506;48.932;9.478;2023-04-03T07:17:22;6.10;;;2.60;;
2992;SDS011;1506;48.932;9.478;2023-04-03T07:19:50;10.00;;;3.20;;
2992;SDS011;1506;48.932;9.478;2023-04-03T07:22:17;2.90;;;2.80;;
2992;SDS011;1506;48.932;9.478;2023-04-03T07:24:45;3.37;;;2.43;;
2992;SDS011;1506;48.932;9.478;2023-04-03T07:27:13;10.43;;;3.10;;
2992;SDS011;1506;48.932;9.478;2023-04-03T07:29:40;3.33;;;3.13;;
2992;SDS011;1506;48.932;9.478;2023-04-03T07:32:07;5.03;;;3.17;;
2992;SDS011;1506;48.932;9.478;2023-04-03T07:34:34;3.70;;;3.33;;
2992;SDS011;1506;48.932;9.478;2023-04-03T07:37:02;6.63;;;3.20;;
2992;SDS011;1506;48.932;9.478;2023-04-03T07:39:29;3.50;;;2.50;;
2992;SDS011;1506;48.932;9.478;2023-04-03T07:41:56;3.03;;;2.73;;
2992;SDS011;1506;48.932;9.478;2023-04-03T07:44:24;6.50;;;2.63;;
2992;SDS011;1506;48.932;9.478;2023-04-03T07:46:51;2.93;;;2.63;;
2992;SDS011;1506;48.932;9.478;2023-04-03T07:49:18;3.77;;;3.47;;
2992;SDS011;1506;48.932;9.478;2023-04-03T07:51:45;3.37;;;2.70;;
2992;SDS011;1506;48.932;9.478;2023-04-03T07:54:12;4.53;;;2.67;;
2992;SDS011;1506;48.932;9.478;2023-04-03T07:56:39;3.13;;;2.83;;
2992;SDS011;1506;48.932;9.478;2023-04-03T07:59:09;3.17;;;2.97;;
2992;SDS011;1506;48.932;9.478;2023-04-03T08:01:37;2.83;;;2.73;;
2992;SDS011;1506;48.932;9.478;2023-04-03T08:04:04;5.73;;;3.57;;
2992;SDS011;1506;48.932;9.478;2023-04-03T08:06:33;5.60;;;2.43;;
2992;SDS011;1506;48.932;9.478;2023-04-03T08:09:12;4.00;;;3.20;;
2992;SDS011;1506;48.932;9.478;2023-04-03T08:11:41;3.07;;;2.87;;
2992;SDS011;1506;48.932;9.478;2023-04-03T08:14:08;3.60;;;2.70;;
2992;SDS011;1506;48.932;9.478;2023-04-03T08:16:42;5.60;;;3.50;;
2992;SDS011;1506;48.932;9.478;2023-04-03T08:19:11;3.10;;;2.90;;
2992;SDS011;1506;48.932;9.478;2023-04-03T08:21:50;8.10;;;2.60;;
2992;SDS011;1506;48.932;9.478;2023-04-03T08:24:17;2.50;;;2.40;;
2992;SDS011;1506;48.932;9.478;2023-04-03T08:26:44;3.20;;;2.90;;
2992;SDS011;1506;48.932;9.478;2023-04-03T08:29:11;3.63;;;2.83;;
2992;SDS011;1506;48.932;9.478;2023-04-03T08:31:38;5.83;;;2.50;;
2992;SDS011;1506;48.932;9.478;2023-04-03T08:34:05;3.77;;;2.50;;
2992;SDS011;1506;48.932;9.478;2023-04-03T08:36:32;4.70;;;2.50;;
2992;SDS011;1506;48.932;9.478;2023-04-03T08:38:59;9.73;;;3.30;;
2992;SDS011;1506;48.932;9.478;2023-04-03T08:41:34;2.90;;;2.07;;
2992;SDS011;1506;48.932;9.478;2023-04-03T08:44:25;4.10;;;3.30;;
2992;SDS011;1506;48.932;9.478;2023-04-03T08:50:00;2.60;;;2.50;;
2992;SDS011;1506;48.932;9.478;2023-04-03T08:52:34;5.40;;;2.93;;
2992;SDS011;1506;48.932;9.478;2023-04-03T08:55:06;3.17;;;2.67;;
2992;SDS011;1506;48.932;9.478;2023-04-03T08:57:41;3.20;;;3.00;;
2992;SDS011;1506;48.932;9.478;2023-04-03T09:02:41;4.00;;;2.40;;
2992;SDS011;1506;48.932;9.478;2023-04-03T09:10:50;6.93;;;3.00;;
2992;SDS011;1506;48.932;9.478;2023-04-03T09:16:00;2.83;;;2.73;;
2992;SDS011;1506;48.932;9.478;2023-04-03T09:18:30;2.93;;;2.50;;
2992;SDS011;1506;48.932;9.478;2023-04-03T09:23:48;2.33;;;2.23;;
2992;SDS011;1506;48.932;9.478;2023-04-03T09:29:16;2.13;;;1.90;;
2992;SDS011;1506;48.932;9.478;2023-04-03T09:31:46;1.97;;;1.87;;
2992;SDS011;1506;48.932;9.478;2023-04-03T09:34:23;2.70;;;2.50;;
2992;SDS011;1506;48.932;9.478;2023-04-03T09:36:55;2.30;;;2.20;;
2992;SDS011;1506;48.932;9.478;2023-04-03T09:39:32;2.63;;;2.53;;
2992;SDS011;1506;48.932;9.478;2023-04-03T09:42:20;4.90;;;2.03;;
2992;SDS011;1506;48.932;9.478;2023-04-03T09:44:53;2.60;;;1.70;;
2992;SDS011;1506;48.932;9.478;2023-04-03T09:47:30;2.33;;;2.23;;
2992;SDS011;1506;48.932;9.478;2023-04-03T09:52:42;4.20;;;2.40;;
2992;SDS011;1506;48.932;9.478;2023-04-03T09:55:15;3.80;;;2.13;;
2992;SDS011;1506;48.932;9.478;2023-04-03T09:57:45;3.20;;;1.83;;
2992;SDS011;1506;48.932;9.478;2023-04-03T10:00:22;2.37;;;2.17;;
2992;SDS011;1506;48.932;9.478;2023-04-03T10:02:55;1.77;;;1.67;;
2992;SDS011;1506;48.932;9.478;2023-04-03T10:05:39;5.13;;;1.97;;
2992;SDS011;1506;48.932;9.478;2023-04-03T10:10:48;2.07;;;1.83;;
2992;SDS011;1506;48.932;9.478;2023-04-03T10:13:32;1.93;;;1.83;;
2992;SDS011;1506;48.932;9.478;2023-04-03T10:16:14;8.10;;;2.30;;
2992;SDS011;1506;48.932;9.478;2023-04-03T10:18:57;5.87;;;2.00;;
2992;SDS011;1506;48.932;9.478;2023-04-03T10:24:41;1.83;;;1.73;;
2992;SDS011;1506;48.932;9.478;2023-04-03T10:27:26;4.27;;;2.00;;
2992;SDS011;1506;48.932;9.478;2023-04-03T10:38:51;2.63;;;2.50;;
2992;SDS011;1506;48.932;9.478;2023-04-03T10:42:05;2.63;;;2.43;;
2992;SDS011;1506;48.932;9.478;2023-04-03T10:47:49;5.90;;;2.40;;
2992;SDS011;1506;48.932;9.478;2023-04-03T10:50:39;2.80;;;2.20;;
2992;SDS011;1506;48.932;9.478;2023-04-03T11:01:16;4.40;;;2.40;;
2992;SDS011;1506;48.932;9.478;2023-04-03T11:03:56;5.57;;;2.50;;
2992;SDS011;1506;48.932;9.478;2023-04-03T11:06:26;2.83;;;2.50;;
2992;SDS011;1506;48.932;9.478;2023-04-03T11:09:15;1.80;;;1.70;;
2992;SDS011;1506;48.932;9.478;2023-04-03T11:11:56;2.67;;;2.47;;
2992;SDS011;1506;48.932;9.478;2023-04-03T11:14:35;2.03;;;1.93;;
2992;SDS011;1506;48.932;9.478;2023-04-03T11:19:54;3.70;;;2.10;;
2992;SDS011;1506;48.932;9.478;2023-04-03T11:27:45;5.47;;;1.97;;
2992;SDS011;1506;48.932;9.478;2023-04-03T11:30:28;2.27;;;2.07;;
2992;SDS011;1506;48.932;9.478;2023-04-03T11:33:28;3.23;;;2.20;;
2992;SDS011;1506;48.932;9.478;2023-04-03T11:36:12;1.60;;;1.50;;
2992;SDS011;1506;48.932;9.478;2023-04-03T11:39:02;4.60;;;2.13;;
2992;SDS011;1506;48.932;9.478;2023-04-03T11:41:51;2.50;;;1.97;;
2992;SDS011;1506;48.932;9.478;2023-04-03T11:44:38;2.13;;;1.93;;
2992;SDS011;1506;48.932;9.478;2023-04-03T11:47:06;2.20;;;2.00;;
2992;SDS011;1506;48.932;9.478;2023-04-03T12:16:18;5.03;;;1.97;;
2992;SDS011;1506;48.932;9.478;2023-04-03T12:32:07;2.57;;;2.37;;
2992;SDS011;1506;48.932;9.478;2023-04-03T12:40:49;2.30;;;2.10;;
2992;SDS011;1506;48.932;9.478;2023-04-03T12:46:23;5.10;;;1.87;;
2992;SDS011;1506;48.932;9.478;2023-04-03T12:57:12;3.70;;;2.50;;
2992;SDS011;1506;48.932;9.478;2023-04-03T12:59:49;6.73;;;2.30;;
2992;SDS011;1506;48.932;9.478;2023-04-03T13:04:58;2.03;;;1.80;;
2992;SDS011;1506;48.932;9.478;2023-04-03T13:07:36;2.60;;;2.27;;
2992;SDS011;1506;48.932;9.478;2023-04-03T13:12:35;2.53;;;2.43;;
2992;SDS011;1506;48.932;9.478;2023-04-03T13:17:52;5.17;;;2.80;;
2992;SDS011;1506;48.932;9.478;2023-04-03T13:25:25;8.27;;;2.80;;
2992;SDS011;1506;48.932;9.478;2023-04-03T13:27:56;2.03;;;1.93;;
2992;SDS011;1506;48.932;9.478;2023-04-03T13:30:39;3.63;;;2.27;;
2992;SDS011;1506;48.932;9.478;2023-04-03T13:33:24;2.50;;;2.40;;
2992;SDS011;1506;48.932;9.478;2023-04-03T13:35:54;2.20;;;2.10;;
2992;SDS011;1506;48.932;9.478;2023-04-03T13:38:27;2.17;;;2.07;;
2992;SDS011;1506;48.932;9.478;2023-04-03T13:41:21;5.53;;;2.43;;
2992;SDS011;1506;48.932;9.478;2023-04-03T13:43:52;2.50;;;1.90;;
2992;SDS011;1506;48.932;9.478;2023-04-03T13:46:32;2.20;;;2.10;;
2992;SDS011;1506;48.932;9.478;2023-04-03T13:48:59;2.40;;;2.30;;
2992;SDS011;1506;48.932;9.478;2023-04-03T13:51:54;2.43;;;2.33;;
2992;SDS011;1506;48.932;9.478;2023-04-03T13:54:37;2.43;;;2.23;;
2992;SDS011;1506;48.932;9.478;2023-04-03T13:57:13;3.47;;;2.17;;
2992;SDS011;1506;48.932;9.478;2023-04-03T13:59:42;2.63;;;2.43;;
2992;SDS011;1506;48.932;9.478;2023-04-03T14:04:55;2.47;;;1.77;;
2992;SDS011;1506;48.932;9.478;2023-04-03T14:07:29;2.43;;;2.23;;
2992;SDS011;1506;48.932;9.478;2023-04-03T14:09:57;1.93;;;1.83;;
2992;SDS011;1506;48.932;9.478;2023-04-03T14:12:42;2.37;;;2.17;;
2992;SDS011;1506;48.932;9.478;2023-04-03T14:15:18;1.73;;;1.63;;
2992;SDS011;1506;48.932;9.478;2023-04-03T14:17:50;2.07;;;1.90;;
2992;SDS011;1506;48.932;9.478;2023-04-03T14:20:19;2.40;;;2.20;;
2992;SDS011;1506;48.932;9.478;2023-04-03T14:22:50;4.50;;;2.20;;
2992;SDS011;1506;48.932;9.478;2023-04-03T14:25:18;5.50;;;2.07;;
2992;SDS011;1506;48.932;9.478;2023-04-03T14:27:47;2.23;;;1.60;;
2992;SDS011;1506;48.932;9.478;2023-04-03T14:30:18;1.93;;;1.83;;
2992;SDS011;1506;48.932;9.478;2023-04-03T14:32:59;2.80;;;2.53;;
2992;SDS011;1506;48.932;9.478;2023-04-03T14:35:27;2.57;;;1.83;;
2992;SDS011;1506;48.932;9.478;2023-04-03T14:37:54;3.97;;;2.20;;
2992;SDS011;1506;48.932;9.478;2023-04-03T14:40:23;3.30;;;2.47;;
2992;SDS011;1506;48.932;9.478;2023-04-03T14:42:53;5.93;;;2.20;;
2992;SDS011;1506;48.932;9.478;2023-04-03T14:45:22;3.60;;;2.47;;
2992;SDS011;1506;48.932;9.478;2023-04-03T14:47:53;4.43;;;1.80;;
2992;SDS011;1506;48.932;9.478;2023-04-03T14:50:23;6.43;;;1.80;;
2992;SDS011;1506;48.932;9.478;2023-04-03T14:52:53;1.90;;;1.80;;
2992;SDS011;1506;48.932;9.478;2023-04-03T14:55:24;2.23;;;2.13;;
2992;SDS011;1506;48.932;9.478;2023-04-03T14:57:52;2.40;;;2.20;;
2992;SDS011;1506;48.932;9.478;2023-04-03T15:00:20;1.77;;;1.67;;
2992;SDS011;1506;48.932;9.478;2023-04-03T15:02:48;1.70;;;1.60;;
2992;SDS011;1506;48.932;9.478;2023-04-03T15:05:16;1.90;;;1.80;;
2992;SDS011;1506;48.932;9.478;2023-04-03T15:07:50;2.70;;;2.60;;
2992;SDS011;1506;48.932;9.478;2023-04-03T15:10:26;3.50;;;2.37;;
2992;SDS011;1506;48.932;9.478;2023-04-03T15:12:55;2.27;;;2.07;;
2992;SDS011;1506;48.932;9.478;2023-04-03T15:15:23;2.00;;;1.43;;
2992;SDS011;1506;48.932;9.478;2023-04-03T15:17:52;7.47;;;1.73;;
2992;SDS011;1506;48.932;9.478;2023-04-03T15:20:23;3.13;;;2.70;;
2992;SDS011;1506;48.932;9.478;2023-04-03T15:22:52;2.07;;;1.97;;
2992;SDS011;1506;48.932;9.478;2023-04-03T15:25:22;3.30;;;2.17;;
2992;SDS011;1506;48.932;9.478;2023-04-03T15:27:52;2.50;;;2.40;;
2992;SDS011;1506;48.932;9.478;2023-04-03T15:30:20;3.10;;;2.03;;
2992;SDS011;1506;48.932;9.478;2023-04-03T15:32:48;5.53;;;2.00;;
2992;SDS011;1506;48.932;9.478;2023-04-03T15:35:15;2.17;;;1.97;;
2992;SDS011;1506;48.932;9.478;2023-04-03T15:37:42;3.13;;;1.90;;
2992;SDS011;1506;48.932;9.478;2023-04-03T15:40:09;1.93;;;1.83;;
2992;SDS011;1506;48.932;9.478;2023-04-03T15:42:37;2.50;;;2.30;;
2992;SDS011;1506;48.932;9.478;2023-04-03T15:45:04;3.87;;;2.20;;
2992;SDS011;1506;48.932;9.478;2023-04-03T15:47:32;4.93;;;2.77;;
2992;SDS011;1506;48.932;9.478;2023-04-03T15:49:59;1.83;;;1.73;;
2992;SDS011;1506;48.932;9.478;2023-04-03T15:52:26;3.87;;;1.90;;
2992;SDS011;1506;48.932;9.478;2023-04-03T15:54:53;3.43;;;2.40;;
2992;SDS011;1506;48.932;9.478;2023-04-03T15:57:20;7.03;;;2.47;;
2992;SDS011;1506;48.932;9.478;2023-04-03T15:59:52;2.13;;;1.93;;
2992;SDS011;1506;48.932;9.478;2023-04-03T16:02:19;1.90;;;1.80;;
2992;SDS011;1506;48.932;9.478;2023-04-03T16:04:47;3.77;;;2.20;;
2992;SDS011;1506;48.932;9.478;2023-04-03T16:07:15;2.33;;;2.20;;
2992;SDS011;1506;48.932;9.478;2023-04-03T16:09:42;7.53;;;1.67;;
2992;SDS011;1506;48.932;9.478;2023-04-03T16:12:09;2.10;;;1.90;;
2992;SDS011;1506;48.932;9.478;2023-04-03T16:14:36;1.80;;;1.70;;
2992;SDS011;1506;48.932;9.478;2023-04-03T16:17:03;2.70;;;2.50;;
2992;SDS011;1506;48.932;9.478;2023-04-03T16:19:30;2.40;;;2.20;;
2992;SDS011;1506;48.932;9.478;2023-04-03T16:21:57;2.70;;;2.40;;
2992;SDS011;1506;48.932;9.478;2023-04-03T16:24:24;2.17;;;2.07;;
2992;SDS011;1506;48.932;9.478;2023-04-03T16:26:51;10.03;;;2.33;;
2992;SDS011;1506;48.932;9.478;2023-04-03T16:29:19;5.70;;;2.20;;
2992;SDS011;1506;48.932;9.478;2023-04-03T16:31:46;1.93;;;1.80;;
2992;SDS011;1506;48.932;9.478;2023-04-03T16:34:13;2.37;;;2.27;;
2992;SDS011;1506;48.932;9.478;2023-04-03T16:36:42;1.77;;;1.67;;
2992;SDS011;1506;48.932;9.478;2023-04-03T16:39:09;1.97;;;1.87;;
2992;SDS011;1506;48.932;9.478;2023-04-03T16:41:36;3.60;;;2.20;;
2992;SDS011;1506;48.932;9.478;2023-04-03T16:44:04;3.30;;;2.87;;
2992;SDS011;1506;48.932;9.478;2023-04-03T16:46:33;3.60;;;2.03;;
2992;SDS011;1506;48.932;9.478;2023-04-03T16:49:00;5.00;;;2.63;;
2992;SDS011;1506;48.932;9.478;2023-04-03T16:51:27;6.00;;;2.80;;
2992;SDS011;1506;48.932;9.478;2023-04-03T16:53:54;1.90;;;1.80;;
2992;SDS011;1506;48.932;9.478;2023-04-03T16:56:22;2.37;;;2.17;;
2992;SDS011;1506;48.932;9.478;2023-04-03T16:58:49;3.53;;;1.93;;
2992;SDS011;1506;48.932;9.478;2023-04-03T17:01:17;1.93;;;1.80;;
2992;SDS011;1506;48.932;9.478;2023-04-03T17:03:46;4.40;;;2.27;;
2992;SDS011;1506;48.932;9.478;2023-04-03T17:06:17;1.80;;;1.70;;
2992;SDS011;1506;48.932;9.478;2023-04-03T17:08:47;3.93;;;2.40;;
2992;SDS011;1506;48.932;9.478;2023-04-03T17:11:27;2.00;;;1.90;;
2992;SDS011;1506;48.932;9.478;2023-04-03T17:13:55;2.60;;;2.50;;
2992;SDS011;1506;48.932;9.478;2023-04-03T17:16:23;1.80;;;1.70;;
2992;SDS011;1506;48.932;9.478;2023-04-03T17:18:52;2.33;;;2.23;;
2992;SDS011;1506;48.932;9.478;2023-04-03T17:21:20;9.67;;;1.97;;
2992;SDS011;1506;48.932;9.478;2023-04-03T17:23:49;2.30;;;2.10;;
2992;SDS011;1506;48.932;9.478;2023-04-03T17:26:23;2.30;;;2.20;;
2992;SDS011;1506;48.932;9.478;2023-04-03T17:28:52;2.13;;;2.03;;
2992;SDS011;1506;48.932;9.478;2023-04-03T17:31:19;1.60;;;1.50;;
2992;SDS011;1506;48.932;9.478;2023-04-03T17:33:46;2.13;;;1.93;;
2992;SDS011;1506;48.932;9.478;2023-04-03T17:36:13;3.07;;;1.90;;
2992;SDS011;1506;48.932;9.478;2023-04-03T17:38:41;2.20;;;2.00;;
2992;SDS011;1506;48.932;9.478;2023-04-03T17:41:08;2.23;;;2.13;;
2992;SDS011;1506;48.932;9.478;2023-04-03T17:43:35;2.13;;;1.93;;
2992;SDS011;1506;48.932;9.478;2023-04-03T17:46:07;2.23;;;1.63;;